Paris Hill, Maine
Current Conditions -  °F | °C
As of 4:55 AM on Saturday 25 Oct 2014 (Local Time) from KLEW Reporting Station
Overcast Overcast  
Wind Chill: 46°   Ceiling: 8500
Heat Index: 46°   Visibility: 10mi
Dew Point: 30°   Wind: 0mph
Humidity: 53%   Direction: NA
Pressure: 29.68"   Gusts: NA
Location:  44.2599°N, 70.5024°W
Report Text: KLEW 250855Z AUTO 00000KT 10SM OVC085 08/M01 A2968 RMK AO1 57003
Loading
Personal Weather Stations






























Interactive Weather Map
Tropical Storm Tracking
New forecast layout! Learn more

10-Day Weather Forecast

Advertisements
Track Severe Weather on mobile